Flight Track Log - Related Links

Times and Time Zones

All times are in EDT time to prevent confusion due to time zone crossing. See the CSN6747 flight status page for this flight to view local times or setup timezone preferences in your user account.

Time Position Orientation Groundspeed Altitude Reporting Facility
EDT Latitude Longitude Course Direction KTS MPH feet Rate Location/Type
Tue 10:39:32 PM 20.1826 110.8099 35° Northeast  Level Estimated
Tue 10:40:32 PM 20.2623 110.8700 35° Northeast  Level Estimated
Tue 10:41:32 PM 20.3419 110.9302 35° Northeast  Level Estimated
Tue 10:42:32 PM 20.4215 110.9904 35° Northeast  Level Estimated
Tue 10:43:32 PM 20.5011 111.0507 35° Northeast  Level Estimated
Tue 10:44:32 PM 20.5806 111.1111 35° Northeast  Level Estimated
Tue 10:45:32 PM 20.6601 111.1715 35° Northeast  Level Estimated
Tue 10:46:32 PM 20.7397 111.2320 35° Northeast  Level Estimated
Tue 10:47:32 PM 20.8191 111.2925 35° Northeast  Level Estimated
Tue 10:48:32 PM 20.8986 111.3531 35° Northeast  Level Estimated
Tue 10:49:32 PM 20.9781 111.4138 36° Northeast  Level Estimated
Tue 10:50:32 PM 21.0575 111.4746 36° Northeast  Level Estimated
Tue 10:51:32 PM 21.1369 111.5354 36° Northeast  Level Estimated
Tue 10:52:32 PM 21.2163 111.5962 36° Northeast  Level Estimated
Tue 10:53:32 PM 21.2956 111.6572 36° Northeast  Level Estimated
Tue 10:54:32 PM 21.3750 111.7182 36° Northeast  Level Estimated
Tue 10:55:32 PM 21.4543 111.7793 36° Northeast  Level Estimated
Tue 10:56:32 PM 21.5336 111.8404 36° Northeast  Level Estimated
Tue 10:57:32 PM 21.6129 111.9016 36° Northeast  Level Estimated
Tue 10:58:32 PM 21.6921 111.9629 36° Northeast  Level Estimated
Tue 10:59:32 PM 21.7713 112.0242 36° Northeast  Level Estimated
Tue 11:00:32 PM 21.8505 112.0856 36° Northeast  Level Estimated
Tue 11:01:32 PM 21.9297 112.1471 36° Northeast  Level Estimated
Tue 11:02:32 PM 22.0089 112.2086 36° Northeast  Level Estimated
Tue 11:03:32 PM 22.0880 112.2703 36° Northeast  Level Estimated
Tue 11:04:32 PM 22.1671 112.3319 36° Northeast  Level Estimated
Tue 11:05:32 PM 22.2462 112.3937 36° Northeast  Level Estimated
Tue 11:06:32 PM 22.3253 112.4555 36° Northeast  Level Estimated
Tue 11:07:32 PM 22.4043 112.5174 36° Northeast  Level Estimated
Tue 11:08:32 PM 22.4833 112.5794 36° Northeast  Level Estimated
Tue 11:09:32 PM 22.5623 112.6414 36° Northeast  Level Estimated
Tue 11:10:32 PM 22.6413 112.7035 36° Northeast  Level Estimated
Tue 11:11:32 PM 22.7202 112.7657 36° Northeast  Level Estimated
Tue 11:12:32 PM 22.7992 112.8279 36° Northeast  Level Estimated
Tue 11:13:32 PM 22.8781 112.8903 36° Northeast  Level Estimated
Tue 11:14:32 PM 22.9569 112.9526 36° Northeast  Level Estimated
Tue 11:15:32 PM 23.0358 113.0151 36° Northeast  Level Estimated
Tue 11:16:32 PM 23.1146 113.0776 36° Northeast  Level Estimated
Tue 11:17:32 PM 23.1934 113.1403 36° Northeast  Level Estimated
Tue 11:18:32 PM 23.2722 113.2029 36° Northeast  Level Estimated
Tue 11:19:32 PM 23.3510 113.2657 36° Northeast  Level Estimated
Tue 11:20:32 PM 23.4297 113.3285 216° Southwest  Level Estimated
Tue 11:21:32 PM 23.3510 113.2657 36° Northeast  Level Estimated
Tue 11:22:32 PM 23.4297 113.3285 216° Southwest  Level Estimated
Tue 11:23:32 PM 23.3510 113.2657 36° Northeast  Level Estimated
Tue 11:24:32 PM 23.4297 113.3285 216° Southwest  Level Estimated
Tue 11:25:32 PM 23.3510 113.2657 36° Northeast  Level Estimated
Tue 11:26:32 PM 23.4297 113.3285 216° Southwest  Level Estimated
Tue 11:27:32 PM 23.3510 113.2657 36° Northeast  Level Estimated
Tue 11:28:32 PM 23.4297 113.3285 216° Southwest  Level Estimated
Tue 11:29:32 PM 23.3510 113.2657 36° Northeast  Level Estimated
Tue 11:30:32 PM 23.4297 113.3285 216° Southwest  Level Estimated
Tue 11:31:32 PM 23.3510 113.2657 36° Northeast  Level Estimated
Tue 11:32:32 PM 23.4297 113.3285 216° Southwest  Level Estimated
Tue 11:33:32 PM 23.3510 113.2657 36° Northeast  Level Estimated
Tue 11:34:32 PM 23.4297 113.3285 216° Southwest  Level Estimated
Tue 11:35:32 PM 23.3510 113.2657 216° Southwest  Level Estimated

Login

Don't have an account? Register now (free) for customized features, flight alerts, and more!